Time;durP1;ratioP1;P1;durP2;ratioP2;P2;SDS_P1;SDS_P2;PMS_P1;PMS_P2;Temp;Humidity;BMP_temperature;BMP_pressure;BME280_temperature;BME280_humidity;BME280_pressure;Samples;Min_cycle;Max_cycle;Signal;HPM_P1;HPM_P2
2023/09/02 00:01:25;;;;;;;3.20;1.67;;;;;;;18.05;83.27;100773.41;4126785;28;20046;-76
2023/09/02 00:03:28;;;;;;;3.08;2.00;;;;;;;17.95;82.90;100774.41;4161260;28;20116;-77
2023/09/02 00:05:31;;;;;;;3.88;2.10;;;;;;;17.88;83.49;100775.34;4162307;28;20045;-76
2023/09/02 00:07:34;;;;;;;3.10;1.83;;;;;;;17.85;83.86;100775.38;4162581;28;20034;-76
2023/09/02 00:09:38;;;;;;;2.25;1.55;;;;;;;17.78;84.03;100778.06;4143997;28;20074;-76
2023/09/02 00:11:41;;;;;;;2.28;1.83;;;;;;;17.78;84.11;100780.72;4161945;28;20038;-76
2023/09/02 00:13:44;;;;;;;4.60;1.80;;;;;;;17.80;84.28;100778.91;4144045;28;20594;-76
2023/09/02 00:15:46;;;;;;;5.75;1.83;;;;;;;17.81;83.63;100779.78;4164452;28;20040;-76
2023/09/02 00:17:52;;;;;;;5.93;1.85;;;;;;;17.77;84.06;100781.59;4147129;28;20052;-76
2023/09/02 00:19:54;;;;;;;2.97;1.83;;;;;;;17.74;84.43;100779.00;4161135;28;20181;-75
2023/09/02 00:21:57;;;;;;;5.22;2.33;;;;;;;17.77;84.27;100780.69;4164951;28;20060;-77
2023/09/02 00:24:05;;;;;;;4.18;1.80;;;;;;;17.78;84.25;100775.44;4164126;28;20048;-77
2023/09/02 00:26:08;;;;;;;4.60;2.55;;;;;;;17.76;84.67;100777.19;4162289;28;20038;-77
2023/09/02 00:28:11;;;;;;;4.50;1.88;;;;;;;17.79;84.29;100779.78;4166521;28;20037;-76
2023/09/02 00:30:14;;;;;;;2.13;1.55;;;;;;;17.78;84.26;100785.06;4128027;28;20038;-77
2023/09/02 00:32:17;;;;;;;4.80;2.05;;;;;;;17.76;84.40;100781.59;4144766;28;20136;-76
2023/09/02 00:34:21;;;;;;;5.97;1.90;;;;;;;17.77;84.06;100784.22;4148309;28;20144;-76
2023/09/02 00:36:24;;;;;;;5.90;2.30;;;;;;;17.77;84.27;100786.84;4157789;28;20034;-76
2023/09/02 00:38:27;;;;;;;3.83;2.20;;;;;;;17.77;84.49;100775.44;4145658;28;20101;-76
2023/09/02 00:40:31;;;;;;;2.72;1.90;;;;;;;17.79;84.67;100771.03;4163044;28;20037;-76
2023/09/02 00:42:34;;;;;;;3.47;1.65;;;;;;;17.79;84.40;100766.66;4144715;28;20042;-77
2023/09/02 00:44:37;;;;;;;3.67;1.75;;;;;;;17.78;84.34;100767.56;4179999;28;20171;-77
2023/09/02 00:46:39;;;;;;;2.92;1.80;;;;;;;17.78;84.34;100771.94;4162564;28;20172;-77
2023/09/02 00:48:42;;;;;;;2.90;1.80;;;;;;;17.75;84.33;100767.56;4144758;28;20042;-77
2023/09/02 00:50:47;;;;;;;5.28;1.98;;;;;;;17.74;83.97;100768.47;4147396;28;20087;-77
2023/09/02 00:52:49;;;;;;;2.45;1.90;;;;;;;17.70;84.15;100772.00;4157225;28;20037;-77
2023/09/02 00:54:52;;;;;;;3.50;1.88;;;;;;;17.69;84.17;100766.78;4162443;28;20685;-76
2023/09/02 00:56:56;;;;;;;4.05;1.95;;;;;;;17.68;84.34;100765.88;4129654;28;20049;-77
2023/09/02 00:59:03;;;;;;;3.17;1.95;;;;;;;17.68;83.98;100768.50;4160876;28;20506;-77
2023/09/02 01:01:07;;;;;;;4.97;1.83;;;;;;;17.67;84.12;100763.28;4161125;28;20455;-77
2023/09/02 01:03:11;;;;;;;6.33;1.67;;;;;;;17.65;83.92;100765.06;4163800;28;20041;-77
2023/09/02 01:05:13;;;;;;;3.65;1.90;;;;;;;17.61;83.94;100772.13;4139901;28;20387;-77
2023/09/02 01:07:19;;;;;;;4.20;1.77;;;;;;;17.63;84.24;100772.97;4157335;28;20064;-77
2023/09/02 01:09:22;;;;;;;3.53;1.83;;;;;;;17.61;84.00;100769.50;4140583;28;20057;-77
2023/09/02 01:11:24;;;;;;;1.75;1.48;;;;;;;17.60;83.87;100780.88;4175929;28;20140;-76
2023/09/02 01:13:27;;;;;;;4.80;2.03;;;;;;;17.59;83.88;100780.00;4146064;28;20065;-77
2023/09/02 01:15:31;;;;;;;7.32;2.40;;;;;;;17.58;83.95;100782.63;4142862;28;20041;-76
2023/09/02 01:17:34;;;;;;;3.88;1.80;;;;;;;17.58;84.10;100787.91;4146351;28;20030;-76
2023/09/02 01:19:40;;;;;;;6.85;2.10;;;;;;;17.59;83.51;100789.66;4163787;28;20067;-77
2023/09/02 01:22:07;;;;;;;5.25;2.08;;;;;;;17.60;83.99;100792.25;4160931;28;20044;-77
2023/09/02 01:24:40;;;;;;;2.72;1.60;;;;;;;17.59;84.03;100789.66;4147761;28;20049;-77
2023/09/02 01:27:13;;;;;;;4.70;2.00;;;;;;;17.56;83.66;100794.94;4130755;28;20042;-77
2023/09/02 01:29:20;;;;;;;4.35;1.98;;;;;;;17.52;84.07;100790.59;4161410;28;20129;-76
2023/09/02 01:31:25;;;;;;;5.00;2.55;;;;;;;17.51;83.66;100794.09;4143695;28;20034;-77
2023/09/02 01:33:29;;;;;;;5.20;2.10;;;;;;;17.45;83.98;100795.91;4156682;28;20044;-77
2023/09/02 01:35:35;;;;;;;4.47;1.97;;;;;;;17.44;84.00;100796.78;4158460;28;20538;-77
2023/09/02 01:37:42;;;;;;;2.50;1.75;;;;;;;17.43;84.31;100789.81;4141458;28;20688;-77
2023/09/02 01:39:48;;;;;;;5.07;2.00;;;;;;;17.43;84.49;100784.56;4177237;28;20052;-76
2023/09/02 01:41:52;;;;;;;5.93;2.00;;;;;;;17.46;84.12;100788.88;4143882;28;20046;-76
2023/09/02 01:43:57;;;;;;;3.97;1.92;;;;;;;17.44;83.95;100791.53;4145409;28;20046;-76
2023/09/02 01:46:01;;;;;;;3.90;1.90;;;;;;;17.43;83.72;100784.56;4145906;28;20038;-76
2023/09/02 01:48:04;;;;;;;3.57;1.80;;;;;;;17.36;83.95;100788.13;4145382;28;20045;-76
2023/09/02 01:50:12;;;;;;;4.90;2.03;;;;;;;17.34;83.96;100791.63;4144637;28;20038;-76
2023/09/02 01:52:15;;;;;;;6.45;2.00;;;;;;;17.30;84.63;100793.41;4144366;28;20046;-76
2023/09/02 01:54:18;;;;;;;3.47;2.25;;;;;;;17.31;84.64;100795.16;4142004;28;20034;-76
2023/09/02 01:56:23;;;;;;;1.88;1.60;;;;;;;17.32;84.67;100796.91;4162978;28;20427;-76
2023/09/02 01:58:27;;;;;;;4.82;1.50;;;;;;;17.31;84.95;100797.78;4160724;28;20500;-77
2023/09/02 02:00:32;;;;;;;3.88;2.03;;;;;;;17.32;84.82;100796.91;4159764;28;20612;-77
2023/09/02 02:02:36;;;;;;;3.83;2.10;;;;;;;17.34;84.84;100802.16;4143693;28;20117;-77
2023/09/02 02:04:43;;;;;;;3.28;1.90;;;;;;;17.35;84.66;100799.50;4145486;28;20034;-77
2023/09/02 02:06:47;;;;;;;7.13;2.20;;;;;;;17.36;84.48;100801.25;4146770;28;20041;-76
2023/09/02 02:08:56;;;;;;;2.75;1.88;;;;;;;17.37;83.80;100802.97;4145040;28;20457;-77
2023/09/02 02:11:02;;;;;;;2.97;1.67;;;;;;;17.27;83.90;100796.94;4143617;28;20038;-77
2023/09/02 02:13:06;;;;;;;2.50;1.83;;;;;;;17.25;84.42;100803.09;4157084;28;20041;-76
2023/09/02 02:15:15;;;;;;;5.35;1.70;;;;;;;17.24;84.54;100807.47;4160151;28;20539;-77
2023/09/02 02:17:19;;;;;;;2.05;1.77;;;;;;;17.24;84.50;100803.97;4162147;28;20565;-76
2023/09/02 02:19:24;;;;;;;4.95;1.75;;;;;;;17.26;84.57;100804.84;4160812;28;20045;-76
2023/09/02 02:21:27;;;;;;;2.92;1.83;;;;;;;17.25;84.43;100806.56;4146544;28;20520;-76
2023/09/02 02:23:33;;;;;;;4.35;2.03;;;;;;;17.27;84.38;100801.31;4142197;28;20042;-76
2023/09/02 02:25:35;;;;;;;5.00;2.00;;;;;;;17.23;84.39;100804.84;4143303;28;20040;-76
2023/09/02 02:27:38;;;;;;;6.40;2.00;;;;;;;17.21;84.43;100804.00;4160719;28;20038;-77
2023/09/02 02:29:40;;;;;;;3.92;2.10;;;;;;;17.20;84.46;100802.22;4142319;28;20084;-76
2023/09/02 02:31:43;;;;;;;7.10;2.35;;;;;;;17.19;84.48;100806.63;4143670;28;20061;-77
2023/09/02 02:33:47;;;;;;;5.10;1.90;;;;;;;17.20;84.39;100805.75;4161857;28;20492;-77
2023/09/02 02:35:50;;;;;;;5.63;2.00;;;;;;;17.20;84.72;100799.59;4162719;28;20044;-76
2023/09/02 02:37:54;;;;;;;1.88;1.60;;;;;;;17.21;84.48;100804.84;4143681;28;20046;-76
2023/09/02 02:39:57;;;;;;;3.83;1.75;;;;;;;17.20;84.55;100807.50;4145496;28;20065;-76
2023/09/02 02:42:00;;;;;;;3.95;2.08;;;;;;;17.19;84.84;100804.00;4131101;28;20043;-77
2023/09/02 02:44:04;;;;;;;4.65;2.33;;;;;;;17.21;84.52;100814.50;4142362;28;20042;-76
2023/09/02 02:46:05;;;;;;;3.13;1.67;;;;;;;17.21;84.76;100804.00;4178400;28;20037;-77
2023/09/02 02:48:15;;;;;;;6.65;1.92;;;;;;;17.20;84.54;100810.13;4160619;28;20099;-77
2023/09/02 02:50:19;;;;;;;3.35;1.80;;;;;;;17.19;84.50;100811.03;4128277;28;20054;-76
2023/09/02 02:52:22;;;;;;;3.33;1.80;;;;;;;17.17;84.84;100807.53;4142777;28;20038;-76
2023/09/02 02:54:25;;;;;;;4.78;2.08;;;;;;;17.20;84.84;100808.38;4144092;28;20037;-76
2023/09/02 02:56:28;;;;;;;7.10;2.22;;;;;;;17.20;84.77;100807.50;4145252;28;20069;-75
2023/09/02 02:58:32;;;;;;;2.75;1.80;;;;;;;17.22;84.80;100811.00;4148981;28;20140;-76
2023/09/02 03:00:36;;;;;;;2.40;1.80;;;;;;;17.19;84.70;100805.78;4147253;28;20061;-76
2023/09/02 03:02:39;;;;;;;4.00;2.05;;;;;;;17.16;85.20;100811.91;4143797;28;20042;-76
2023/09/02 03:04:46;;;;;;;3.10;2.08;;;;;;;17.18;85.25;100810.13;4147475;28;20061;-76
2023/09/02 03:06:51;;;;;;;5.25;1.90;;;;;;;17.19;85.08;100816.28;4167701;28;20483;-76
2023/09/02 03:08:53;;;;;;;4.28;2.00;;;;;;;17.15;85.44;100814.56;4175086;28;20065;-76
2023/09/02 03:10:57;;;;;;;3.92;1.88;;;;;;;17.19;85.21;100816.28;4163679;28;20033;-74
2023/09/02 03:13:01;;;;;;;2.13;1.63;;;;;;;17.20;85.32;100820.63;4149698;28;20034;-76
2023/09/02 03:15:06;;;;;;;3.13;2.15;;;;;;;17.20;85.50;100828.50;4128118;28;20133;-77
2023/09/02 03:17:09;;;;;;;2.85;1.88;;;;;;;17.17;85.21;100823.28;4146715;28;20640;-76
2023/09/02 03:19:11;;;;;;;4.22;2.00;;;;;;;17.16;84.99;100825.06;4147049;28;20061;-77
2023/09/02 03:21:13;;;;;;;3.47;2.00;;;;;;;17.14;85.11;100823.31;4180077;28;20037;-77
2023/09/02 03:23:18;;;;;;;1.95;1.70;;;;;;;17.14;84.85;100823.31;4145257;28;20042;-76
2023/09/02 03:25:22;;;;;;;3.08;1.75;;;;;;;17.12;84.82;100828.56;4161517;28;20400;-77
2023/09/02 03:27:26;;;;;;;;;;;;;;;17.00;85.33;100832.16;4147184;28;20037;-76
2023/09/02 03:29:31;;;;;;;3.95;1.90;;;;;;;17.01;85.23;100833.03;4145369;28;19968;-77
2023/09/02 03:31:36;;;;;;;4.82;2.00;;;;;;;17.02;85.35;100825.13;4181210;28;20043;-77
2023/09/02 03:33:39;;;;;;;5.00;1.87;;;;;;;17.04;85.17;100831.25;4148537;28;21191;-76
2023/09/02 03:35:44;;;;;;;2.60;2.03;;;;;;;17.03;85.22;100828.66;4128488;28;20042;-76
2023/09/02 03:37:47;;;;;;;3.63;2.38;;;;;;;17.05;85.22;100830.34;4158596;28;20038;-76
2023/09/02 03:39:51;;;;;;;12.57;3.05;;;;;;;17.07;85.11;100827.75;4144447;28;20532;-76
2023/09/02 03:41:54;;;;;;;3.40;2.65;;;;;;;17.05;85.48;100824.25;4142526;28;20038;-77
2023/09/02 03:43:56;;;;;;;4.97;2.90;;;;;;;17.07;85.22;100831.25;4146906;28;20037;-77
2023/09/02 03:46:00;;;;;;;4.53;2.67;;;;;;;17.05;85.40;100819.84;4149460;28;20038;-76
2023/09/02 03:48:03;;;;;;;6.05;2.97;;;;;;;17.05;85.16;100819.84;4128231;28;20047;-77
2023/09/02 03:50:08;;;;;;;3.80;2.10;;;;;;;17.05;85.39;100830.34;4145960;28;20129;-75
2023/09/02 03:52:10;;;;;;;5.47;2.15;;;;;;;17.04;85.46;100828.63;4148012;28;20038;-77
2023/09/02 03:54:13;;;;;;;3.42;2.20;;;;;;;17.07;85.55;100839.13;4176917;28;20033;-77
2023/09/02 03:56:18;;;;;;;;;;;;;;;17.00;85.72;100832.16;4142327;28;20042;-77
2023/09/02 03:58:21;;;;;;;5.45;2.80;;;;;;;17.01;85.94;100838.28;4175006;28;19921;-76
2023/09/02 04:00:26;;;;;;;4.72;3.08;;;;;;;17.08;85.80;100834.72;4124333;28;20050;-76
2023/09/02 04:02:30;;;;;;;5.40;2.63;;;;;;;17.07;85.61;100844.38;4142162;28;20489;-76
2023/09/02 04:04:33;;;;;;;5.45;2.67;;;;;;;17.12;85.67;100846.09;4143240;28;20453;-76
2023/09/02 04:06:37;;;;;;;3.65;2.95;;;;;;;17.13;85.70;100842.56;4159839;28;20504;-76
2023/09/02 04:08:40;;;;;;;4.78;2.65;;;;;;;17.15;85.63;100840.81;4126425;28;20054;-75
2023/09/02 04:10:43;;;;;;;3.33;2.53;;;;;;;17.13;85.73;100843.47;4146971;28;20057;-77
2023/09/02 04:12:47;;;;;;;4.55;2.75;;;;;;;17.16;85.64;100853.94;4160402;28;20052;-76
2023/09/02 04:14:51;;;;;;;9.13;4.07;;;;;;;17.15;85.97;100843.44;4162843;28;20164;-76
2023/09/02 04:16:54;;;;;;;4.88;2.80;;;;;;;17.18;85.89;100846.06;4160498;28;20068;-75
2023/09/02 04:19:02;;;;;;;5.55;3.15;;;;;;;17.18;85.75;100841.66;4158304;28;20052;-75
2023/09/02 04:21:08;;;;;;;3.95;2.70;;;;;;;17.17;85.94;100845.19;4148566;28;20427;-75
2023/09/02 04:23:12;;;;;;;4.43;2.67;;;;;;;17.20;86.02;100844.28;4147080;28;20057;-76
2023/09/02 04:25:16;;;;;;;10.65;2.90;;;;;;;17.23;86.12;100845.16;4144895;28;20080;-76
2023/09/02 04:27:19;;;;;;;2.83;2.20;;;;;;;17.24;86.10;100851.25;4127607;28;20038;-76
2023/09/02 04:29:23;;;;;;;6.78;3.17;;;;;;;17.24;86.06;100852.16;4144485;28;20041;-77
2023/09/02 04:31:27;;;;;;;4.85;3.00;;;;;;;17.26;86.31;100842.50;4161777;28;20034;-77
2023/09/02 04:33:29;;;;;;;7.35;3.08;;;;;;;17.30;86.24;100847.72;4148895;28;20128;-76
2023/09/02 04:35:36;;;;;;;5.07;2.28;;;;;;;17.28;86.08;100853.00;4145304;28;20029;-76
2023/09/02 04:37:39;;;;;;;5.90;2.55;;;;;;;17.28;86.34;100853.84;4146990;28;20089;-76
2023/09/02 04:39:42;;;;;;;4.13;2.35;;;;;;;17.30;85.94;100859.09;4147320;28;20618;-75
2023/09/02 04:41:45;;;;;;;5.65;2.40;;;;;;;17.29;86.56;100862.63;4143987;28;20423;-76
2023/09/02 04:43:48;;;;;;;4.05;2.53;;;;;;;17.30;86.65;100868.75;4130224;28;20061;-76
2023/09/02 04:45:53;;;;;;;4.13;2.67;;;;;;;17.26;87.03;100868.78;4146397;28;20041;-75
2023/09/02 04:47:56;;;;;;;6.85;2.10;;;;;;;17.25;86.59;100855.63;4157886;28;20101;-76
2023/09/02 04:50:00;;;;;;;3.13;2.40;;;;;;;17.28;86.82;100860.88;4179501;28;20176;-76
2023/09/02 04:52:04;;;;;;;5.50;2.15;;;;;;;17.29;86.84;100865.25;4146572;28;20064;-77
2023/09/02 04:54:07;;;;;;;4.82;2.42;;;;;;;17.30;86.78;100864.34;4142348;28;20148;-76
2023/09/02 04:56:10;;;;;;;4.70;2.67;;;;;;;17.33;86.96;100866.94;4146898;28;20075;-76
2023/09/02 04:58:15;;;;;;;6.38;3.28;;;;;;;17.36;86.34;100872.22;4162113;28;20033;-76
2023/09/02 05:00:19;;;;;;;3.88;2.60;;;;;;;17.35;86.66;100875.72;4144328;28;20480;-76
2023/09/02 05:02:25;;;;;;;5.07;3.05;;;;;;;17.38;86.47;100880.09;4157177;28;20121;-76
2023/09/02 05:04:28;;;;;;;5.47;3.13;;;;;;;17.38;86.80;100867.81;4145748;28;20034;-76
2023/09/02 05:06:31;;;;;;;4.60;2.45;;;;;;;17.41;86.52;100874.81;4158933;28;20059;-76
2023/09/02 05:08:34;;;;;;;4.80;2.53;;;;;;;17.45;86.80;100874.75;4163566;28;20104;-76
2023/09/02 05:10:37;;;;;;;6.60;2.67;;;;;;;17.47;86.66;100879.16;4144135;28;20042;-76
2023/09/02 05:12:43;;;;;;;4.88;2.72;;;;;;;17.53;86.69;100881.72;4146414;28;20030;-76
2023/09/02 05:14:47;;;;;;;8.02;3.30;;;;;;;17.57;86.04;100872.94;4146064;28;20085;-76
2023/09/02 05:16:50;;;;;;;5.55;3.00;;;;;;;17.58;85.98;100878.16;4160072;28;20041;-76
2023/09/02 05:18:54;;;;;;;6.50;2.83;;;;;;;17.59;85.93;100863.25;4145531;28;20408;-76
2023/09/02 05:20:56;;;;;;;5.18;3.00;;;;;;;17.66;85.77;100864.94;4130398;28;20042;-75
2023/09/02 05:22:59;;;;;;;5.38;3.30;;;;;;;17.71;85.02;100864.91;4161155;28;20060;-75
2023/09/02 05:25:03;;;;;;;9.27;3.70;;;;;;;17.70;84.48;100863.19;4148166;28;20129;-75
2023/09/02 05:27:06;;;;;;;4.38;3.05;;;;;;;17.62;84.19;100861.50;4143163;28;20045;-75
2023/09/02 05:29:09;;;;;;;4.55;2.53;;;;;;;17.57;84.54;100862.41;4127526;28;20077;-75
2023/09/02 05:31:12;;;;;;;5.10;3.15;;;;;;;17.54;85.10;100863.31;4166036;28;20544;-76
2023/09/02 05:33:16;;;;;;;3.90;2.53;;;;;;;17.56;84.91;100869.41;4160252;28;20049;-75
2023/09/02 05:35:20;;;;;;;6.22;2.85;;;;;;;17.61;85.09;100861.50;4162719;28;20072;-75
2023/09/02 05:37:23;;;;;;;6.90;2.80;;;;;;;17.63;84.64;100872.88;4153713;28;20045;-75
2023/09/02 05:39:27;;;;;;;3.30;2.42;;;;;;;17.66;83.91;100872.84;4158471;28;20474;-75
2023/09/02 05:41:30;;;;;;;5.70;2.47;;;;;;;17.60;84.14;100873.75;4161189;28;20042;-75
2023/09/02 05:43:33;;;;;;;3.17;2.13;;;;;;;17.61;84.01;100878.16;4161217;28;20029;-75
2023/09/02 05:45:35;;;;;;;2.63;1.92;;;;;;;17.61;83.26;100883.41;4142978;28;20485;-77
2023/09/02 05:47:38;;;;;;;3.90;2.13;;;;;;;17.62;83.25;100887.78;4147743;28;20069;-76
2023/09/02 05:49:41;;;;;;;3.90;1.90;;;;;;;17.63;83.52;100891.28;4163511;28;20515;-75
2023/09/02 05:51:45;;;;;;;4.47;2.45;;;;;;;17.65;83.02;100897.38;4161135;28;20499;-75
2023/09/02 05:53:48;;;;;;;7.35;2.65;;;;;;;17.61;82.67;100893.91;4143181;28;20069;-76
2023/09/02 05:55:54;;;;;;;4.47;2.50;;;;;;;17.60;83.17;100892.16;4161171;28;20504;-76
2023/09/02 05:57:59;;;;;;;5.18;2.53;;;;;;;17.60;83.23;100886.03;4161604;28;20385;-76
2023/09/02 06:00:03;;;;;;;3.20;2.20;;;;;;;17.61;83.14;100890.44;4165365;28;20040;-76
2023/09/02 06:02:14;;;;;;;4.55;2.40;;;;;;;17.61;83.33;100887.81;4159977;28;20095;-75
2023/09/02 06:04:17;;;;;;;4.13;2.22;;;;;;;17.66;82.52;100891.25;4162567;28;20037;-75
2023/09/02 06:06:20;;;;;;;3.55;2.60;;;;;;;17.70;83.03;100892.97;4143901;28;20038;-75
2023/09/02 06:08:24;;;;;;;4.38;2.53;;;;;;;17.69;81.77;100900.88;4165817;28;20560;-75
2023/09/02 06:10:27;;;;;;;4.85;2.28;;;;;;;17.62;82.45;100900.94;4146487;28;20583;-76
2023/09/02 06:12:30;;;;;;;4.78;2.30;;;;;;;17.68;82.28;100899.13;4160122;28;20064;-75
2023/09/02 06:14:33;;;;;;;5.47;2.15;;;;;;;17.72;81.47;100899.06;4139317;28;20065;-75
2023/09/02 06:16:36;;;;;;;5.95;2.40;;;;;;;17.67;81.58;100898.25;4157854;28;20132;-77
2023/09/02 06:18:39;;;;;;;2.83;2.03;;;;;;;17.64;82.18;100895.66;4156142;28;20043;-75
2023/09/02 06:20:42;;;;;;;2.97;1.98;;;;;;;17.70;81.99;100897.38;4142529;28;20042;-75
2023/09/02 06:22:45;;;;;;;4.70;2.25;;;;;;;17.77;81.38;100899.03;4160352;28;20033;-77
2023/09/02 06:24:49;;;;;;;2.80;2.00;;;;;;;17.73;81.70;100898.19;4161753;28;20033;-76
2023/09/02 06:26:52;;;;;;;2.92;2.05;;;;;;;17.72;82.10;100891.19;4163042;28;20759;-76
2023/09/02 06:28:55;;;;;;;3.60;2.05;;;;;;;17.75;81.47;100891.16;4143098;28;20034;-75
2023/09/02 06:30:58;;;;;;;3.10;1.67;;;;;;;17.75;81.53;100893.78;4159091;28;20099;-74
2023/09/02 06:33:01;;;;;;;3.42;2.30;;;;;;;17.77;81.90;100899.94;4159417;28;20041;-74
2023/09/02 06:35:05;;;;;;;4.03;2.92;;;;;;;17.86;81.23;100904.25;4162230;28;20555;-74
2023/09/02 06:37:08;;;;;;;4.15;2.75;;;;;;;17.79;81.17;100906.03;4162597;28;20041;-73
2023/09/02 06:39:11;;;;;;;2.85;1.95;;;;;;;17.78;81.28;100912.19;4165473;28;20120;-72
2023/09/02 06:41:16;;;;;;;4.28;2.72;;;;;;;17.81;81.64;100898.13;4148538;28;20113;-73
2023/09/02 06:43:19;;;;;;;5.43;3.00;;;;;;;17.98;80.73;100912.94;4162743;28;20415;-73
2023/09/02 06:45:22;;;;;;;6.30;3.30;;;;;;;17.92;81.10;100911.22;4143865;28;20042;-73
2023/09/02 06:47:25;;;;;;;3.78;2.67;;;;;;;17.96;81.05;100916.44;4147395;28;20041;-75
2023/09/02 06:49:28;;;;;;;5.32;3.40;;;;;;;18.00;80.85;100912.03;4162932;28;20099;-72
2023/09/02 06:51:30;;;;;;;6.93;3.80;;;;;;;18.08;79.92;100912.84;4169355;28;20433;-73
2023/09/02 06:53:33;;;;;;;4.80;3.65;;;;;;;18.04;80.81;100919.00;4182451;28;20140;-73
2023/09/02 06:55:37;;;;;;;4.72;3.63;;;;;;;18.16;80.61;100922.41;4141235;28;20436;-73
2023/09/02 06:57:43;;;;;;;5.28;3.60;;;;;;;18.17;80.55;100918.91;4163658;28;20500;-73
2023/09/02 06:59:45;;;;;;;5.65;3.90;;;;;;;18.23;80.84;100914.44;4160172;28;20656;-68
2023/09/02 07:01:48;;;;;;;6.07;3.55;;;;;;;18.27;81.02;100916.16;4162490;28;20061;-70
2023/09/02 07:03:51;;;;;;;7.05;3.47;;;;;;;18.24;80.80;100920.59;4160380;28;20048;-71
2023/09/02 07:05:54;;;;;;;5.40;3.63;;;;;;;18.29;81.06;100924.03;4145059;28;20076;-71
2023/09/02 07:07:57;;;;;;;6.80;4.28;;;;;;;18.47;79.92;100923.84;4162103;28;20042;-71
2023/09/02 07:10:00;;;;;;;5.88;3.92;;;;;;;18.45;80.02;100928.22;4167650;28;20045;-73
2023/09/02 07:12:03;;;;;;;7.78;4.68;;;;;;;18.57;79.26;100929.00;4165724;28;20060;-71
2023/09/02 07:14:07;;;;;;;5.38;4.10;;;;;;;18.62;78.38;100921.94;4145896;28;20145;-72
2023/09/02 07:16:10;;;;;;;7.03;3.95;;;;;;;18.56;78.68;100916.72;4142763;28;20345;-70
2023/09/02 07:18:13;;;;;;;4.22;3.00;;;;;;;18.51;79.18;100923.81;4158955;28;20049;-68
2023/09/02 07:20:16;;;;;;;7.93;3.47;;;;;;;18.52;79.60;100925.56;4162044;28;20048;-68
2023/09/02 07:22:20;;;;;;;4.50;2.95;;;;;;;18.55;80.37;100936.91;4157732;28;20056;-68
2023/09/02 07:24:23;;;;;;;5.67;2.40;;;;;;;18.60;80.44;100939.50;4134552;28;20149;-70
2023/09/02 07:26:28;;;;;;;5.78;3.53;;;;;;;18.72;79.63;100943.75;4161195;28;20049;-67
2023/09/02 07:28:32;;;;;;;5.32;3.38;;;;;;;18.74;79.71;100948.09;4163619;28;20125;-67
2023/09/02 07:30:39;;;;;;;6.68;3.20;;;;;;;18.80;79.87;100952.44;4163796;28;20064;-67
2023/09/02 07:32:41;;;;;;;11.40;3.95;;;;;;;18.83;80.05;100962.94;4164025;28;20041;-67
2023/09/02 07:34:44;;;;;;;7.57;4.60;;;;;;;19.05;78.42;100967.97;4156186;28;20056;-67
2023/09/02 07:36:47;;;;;;;7.00;4.22;;;;;;;19.02;78.23;100967.09;4159431;28;20029;-68
2023/09/02 07:38:50;;;;;;;6.25;3.22;;;;;;;19.01;78.98;100972.41;4149892;28;20045;-68
2023/09/02 07:40:53;;;;;;;7.20;3.75;;;;;;;19.07;78.97;100974.09;4155326;28;20052;-68
2023/09/02 07:42:56;;;;;;;6.72;4.72;;;;;;;19.12;79.18;100975.78;4174559;28;20041;-68
2023/09/02 07:44:59;;;;;;;6.55;4.53;;;;;;;19.16;78.80;100977.47;4147582;28;20065;-70
2023/09/02 07:47:03;;;;;;;7.55;4.63;;;;;;;19.24;78.76;100977.38;4143827;28;20544;-72
2023/09/02 07:49:06;;;;;;;;;;;;;;;19.20;78.46;100978.28;4164041;28;20410;-71
2023/09/02 07:51:09;;;;;;;6.63;4.25;;;;;;;19.30;78.47;100976.41;4165720;28;20015;-72
2023/09/02 07:53:12;;;;;;;8.98;4.50;;;;;;;19.36;78.45;100973.69;4159638;28;20056;-72
2023/09/02 07:55:15;;;;;;;7.95;4.22;;;;;;;19.40;78.17;100974.53;4154786;28;20073;-72
2023/09/02 07:57:20;;;;;;;8.65;4.78;;;;;;;19.50;77.48;100970.88;4157130;28;20034;-71
2023/09/02 07:59:23;;;;;;;6.57;3.83;;;;;;;19.54;77.52;100968.16;4157695;28;20073;-70
2023/09/02 08:01:26;;;;;;;11.85;5.45;;;;;;;19.65;76.62;100960.06;4143863;28;20473;-69
2023/09/02 08:03:30;;;;;;;10.60;5.82;;;;;;;19.90;74.68;100966.78;4148496;28;20221;-69
2023/09/02 08:05:37;;;;;;;9.65;6.15;;;;;;;19.96;73.81;100975.47;4162947;28;20034;-70
2023/09/02 08:07:40;;;;;;;11.82;6.32;;;;;;;19.74;74.71;100969.63;4159836;28;20037;-70
2023/09/02 08:09:43;;;;;;;8.95;6.03;;;;;;;19.71;75.17;100972.31;4148492;28;20431;-69
2023/09/02 08:11:46;;;;;;;9.07;7.18;;;;;;;19.89;73.80;100973.84;4171010;28;20048;-69
2023/09/02 08:13:49;;;;;;;13.05;8.13;;;;;;;19.74;74.61;100971.38;4166930;28;20033;-68
2023/09/02 08:15:50;;;;;;;7.32;6.00;;;;;;;19.66;75.36;100966.25;4156507;28;20475;-69
2023/09/02 08:17:53;;;;;;;9.35;6.80;;;;;;;19.72;75.03;100966.13;4141130;28;20042;-69
2023/09/02 08:19:58;;;;;;;13.10;7.85;;;;;;;19.86;75.13;100964.19;4157242;28;20075;-69
2023/09/02 08:22:00;;;;;;;11.10;7.25;;;;;;;19.85;74.90;100965.06;4161147;28;20041;-69
2023/09/02 08:24:04;;;;;;;10.07;8.07;;;;;;;19.94;75.45;100971.97;4160620;28;20439;-69
2023/09/02 08:26:11;;;;;;;11.80;8.68;;;;;;;20.07;74.05;100972.66;4158627;28;20590;-69
2023/09/02 08:28:14;;;;;;;12.80;8.55;;;;;;;20.17;72.77;100968.94;4160805;28;20048;-69
2023/09/02 08:30:17;;;;;;;11.02;8.35;;;;;;;20.11;73.14;100976.97;4159105;28;20041;-69
2023/09/02 08:32:20;;;;;;;12.68;9.70;;;;;;;20.14;73.02;100969.00;4156981;28;20037;-69
2023/09/02 08:34:23;;;;;;;12.45;8.45;;;;;;;20.23;72.88;100974.13;4156990;28;20111;-69
2023/09/02 08:36:27;;;;;;;9.57;7.68;;;;;;;20.20;72.13;100974.16;4143007;28;20068;-69
2023/09/02 08:38:33;;;;;;;6.78;5.00;;;;;;;20.22;72.74;100967.13;4144891;28;20035;-69
2023/09/02 08:40:35;;;;;;;13.35;6.70;;;;;;;20.30;72.62;100974.03;4157875;28;20116;-69
2023/09/02 08:42:40;;;;;;;7.65;5.68;;;;;;;20.38;71.59;100978.28;4167462;28;20044;-69
2023/09/02 08:44:43;;;;;;;;;;;;;;;20.32;72.20;100981.00;4161628;28;20038;-69
2023/09/02 08:46:46;;;;;;;6.00;4.55;;;;;;;20.38;72.16;100982.66;4158415;28;19936;-69
2023/09/02 08:48:50;;;;;;;8.48;7.15;;;;;;;20.48;71.38;100984.22;4155269;28;20041;-68
2023/09/02 08:50:54;;;;;;;9.07;5.90;;;;;;;20.50;71.32;100985.09;4154441;28;20080;-69
2023/09/02 08:52:59;;;;;;;;;;;;;;;20.58;71.75;100979.66;4160252;28;20042;-69
2023/09/02 08:55:03;;;;;;;12.85;7.72;;;;;;;20.77;69.79;100969.63;4161852;28;20024;-69
2023/09/02 08:57:07;;;;;;;8.15;6.25;;;;;;;20.75;70.38;100976.72;4160238;28;20036;-70
2023/09/02 08:59:10;;;;;;;10.07;5.03;;;;;;;20.77;71.49;100982.84;4168830;28;20048;-69
2023/09/02 09:01:17;;;;;;;7.55;5.82;;;;;;;20.89;70.63;100979.94;4155629;28;20668;-69
2023/09/02 09:03:21;;;;;;;9.27;6.90;;;;;;;21.04;69.47;100985.81;4152351;28;20044;-70
2023/09/02 09:05:35;;;;;;;7.07;4.68;;;;;;;21.01;69.70;100984.13;4153433;28;20041;-69
2023/09/02 09:07:41;;;;;;;7.93;6.22;;;;;;;21.07;69.13;100985.75;4157584;28;20048;-69
2023/09/02 09:09:46;;;;;;;5.80;4.53;;;;;;;21.10;68.72;100980.44;4160030;28;20088;-69
2023/09/02 09:11:50;;;;;;;7.00;4.88;;;;;;;21.30;68.28;100974.69;4143561;28;20632;-70
2023/09/02 09:13:57;;;;;;;6.20;4.30;;;;;;;21.26;69.13;100979.19;4165728;28;20033;-69
2023/09/02 09:16:01;;;;;;;6.95;4.75;;;;;;;21.34;68.04;100978.16;4157301;28;20408;-69
2023/09/02 09:18:05;;;;;;;4.75;3.42;;;;;;;21.30;69.18;100989.69;4159909;28;20132;-70
2023/09/02 09:20:08;;;;;;;5.60;3.50;;;;;;;21.39;69.43;100984.19;4139336;28;20042;-69
2023/09/02 09:22:10;;;;;;;4.93;3.35;;;;;;;21.48;69.01;100991.06;4157003;28;20069;-69
2023/09/02 09:24:14;;;;;;;5.20;3.40;;;;;;;21.54;68.75;100994.47;4160314;28;20235;-68
2023/09/02 09:26:19;;;;;;;4.68;2.97;;;;;;;21.68;68.05;100994.13;4160544;28;20033;-68
2023/09/02 09:28:22;;;;;;;3.85;2.88;;;;;;;21.76;68.25;100996.63;4160549;28;20064;-68
2023/09/02 09:30:30;;;;;;;6.60;3.47;;;;;;;21.92;67.86;101000.63;4158526;28;20037;-68
2023/09/02 09:32:33;;;;;;;4.28;2.85;;;;;;;22.04;67.12;101001.25;4157205;28;20037;-68
2023/09/02 09:34:37;;;;;;;6.47;2.83;;;;;;;22.15;66.79;100999.19;4161164;28;20048;-69
2023/09/02 09:36:41;;;;;;;4.63;2.90;;;;;;;22.20;66.71;100999.94;4153252;28;20477;-68
2023/09/02 09:38:46;;;;;;;4.50;2.80;;;;;;;22.33;66.48;101000.53;4151582;28;20284;-70